Siren, WI

11:19 PM CDT on May 26, 2015 (GMT -0500)
Burnett County | | Change Station
CLOSE
Current Station
Airport
Location: Siren,
Elevation: 988 ft
Nearby Weather Stations

Elev 988 ft 45.82 °N, 92.37 °W | Updated 29 minutes ago

Overcast
Overcast
55 °F
Feels Like 55 °F
N
4
Wind Variable Wind from NNW

Today
High -- | Low -- °F
--% Chance of Precip.
Yesterday
High -- | Low -- °F
Precip. -- in
5:27 AM 8:46 PM
Waxing Gibbous, 64% visible
Pressure 29.80 in
Visibility 10.0 miles
Clouds Overcast 11000 ft
Dew Point 54 °F
Humidity 97%
Rainfall 0.51 in
Snow Depth Not available.
UV 0 out of 12
Pollen 6.90 out of 12
Air Quality Not available.
Flu Activity Sporadic
METAR KRZN 270350Z AUTO 34003KT 10SM OVC110 13/12 A2980 RMK AO2 T01270122

More Conditions Fewer Conditions

Pressure 29.80 in
Visibility 10.0 miles
Clouds Overcast 11000 ft
Dew Point 54 °F
Humidity 97%
Rainfall 0.51 in
Snow Depth Not available.
UV 0 out of 12
Pollen 6.90 out of 12
Air Quality Not available.
Flu Activity Sporadic
METAR KRZN 270350Z AUTO 34003KT 10SM OVC110 13/12 A2980 RMK AO2 T01270122

More Conditions Fewer Conditions

10-Day Weather Forecast

Almanac

Astronomy

May. 26, 2015 Rise Set
Actual Time
Civil Twilight
Nautical Twilight
Astronomical Twilight
Moon
Length of Visible Light
Length of Day
Tomorrow will be .
, % of the Moon is Illuminated

Today's Extremes

State Highs State Lows

Community

WunderPhotos

Upload Photos

1,824,606 photos uploaded!

WunderBlogs® & News

Nearby

Air Quality

  Air Quality AQ Index Pollutant
Not available.

Snow Depth

Station Depth Elevation

Earthquake Activity

City Distance Mag. Time & Date
Minimum magnitude displayed is 2.5.

Coastal Water Temperatures

Place Temperature

Stations

Nearby Weather Stations

Station Location Temp. Windchill Dew Point Humidity Wind Precip. Elev Updated Type